sensor_id;sensor_type;location;lat;lon;timestamp;P1;durP1;ratioP1;P2;durP2;ratioP2
21352;SDS011;10834;52.268;6.770;2023-06-22T00:01:32;13.05;;;11.63;;
21352;SDS011;10834;52.268;6.770;2023-06-22T00:04:18;14.18;;;11.50;;
21352;SDS011;10834;52.268;6.770;2023-06-22T00:07:04;14.93;;;12.43;;
21352;SDS011;10834;52.268;6.770;2023-06-22T00:09:50;13.90;;;11.35;;
21352;SDS011;10834;52.268;6.770;2023-06-22T00:12:36;14.18;;;11.82;;
21352;SDS011;10834;52.268;6.770;2023-06-22T00:15:23;13.70;;;10.95;;
21352;SDS011;10834;52.268;6.770;2023-06-22T00:18:10;12.50;;;10.80;;
21352;SDS011;10834;52.268;6.770;2023-06-22T00:20:56;15.40;;;12.63;;
21352;SDS011;10834;52.268;6.770;2023-06-22T00:23:43;14.32;;;12.80;;
21352;SDS011;10834;52.268;6.770;2023-06-22T00:26:29;16.50;;;13.00;;
21352;SDS011;10834;52.268;6.770;2023-06-22T00:29:15;15.13;;;12.23;;
21352;SDS011;10834;52.268;6.770;2023-06-22T00:32:02;14.93;;;13.40;;
21352;SDS011;10834;52.268;6.770;2023-06-22T00:34:49;18.33;;;15.52;;
21352;SDS011;10834;52.268;6.770;2023-06-22T00:37:36;17.48;;;15.68;;
21352;SDS011;10834;52.268;6.770;2023-06-22T00:40:23;20.55;;;15.95;;
21352;SDS011;10834;52.268;6.770;2023-06-22T00:43:09;19.45;;;14.80;;
21352;SDS011;10834;52.268;6.770;2023-06-22T00:45:55;20.23;;;16.33;;
21352;SDS011;10834;52.268;6.770;2023-06-22T00:52:24;18.42;;;16.45;;
21352;SDS011;10834;52.268;6.770;2023-06-22T00:55:14;18.58;;;15.32;;
21352;SDS011;10834;52.268;6.770;2023-06-22T00:58:03;24.98;;;17.30;;
21352;SDS011;10834;52.268;6.770;2023-06-22T01:00:53;21.00;;;18.63;;
21352;SDS011;10834;52.268;6.770;2023-06-22T01:03:40;21.23;;;17.75;;
21352;SDS011;10834;52.268;6.770;2023-06-22T01:06:32;22.50;;;18.10;;
21352;SDS011;10834;52.268;6.770;2023-06-22T01:09:27;22.08;;;19.67;;
21352;SDS011;10834;52.268;6.770;2023-06-22T01:12:25;28.75;;;20.75;;
21352;SDS011;10834;52.268;6.770;2023-06-22T01:15:27;27.13;;;22.42;;
21352;SDS011;10834;52.268;6.770;2023-06-22T01:18:17;24.60;;;21.92;;
21352;SDS011;10834;52.268;6.770;2023-06-22T01:21:05;27.20;;;22.92;;
21352;SDS011;10834;52.268;6.770;2023-06-22T01:27:18;31.45;;;22.55;;
21352;SDS011;10834;52.268;6.770;2023-06-22T01:30:22;29.65;;;23.52;;
21352;SDS011;10834;52.268;6.770;2023-06-22T01:33:12;28.08;;;23.83;;
21352;SDS011;10834;52.268;6.770;2023-06-22T01:36:00;25.98;;;22.75;;
21352;SDS011;10834;52.268;6.770;2023-06-22T01:38:48;26.75;;;23.30;;
21352;SDS011;10834;52.268;6.770;2023-06-22T01:41:36;29.50;;;24.00;;
21352;SDS011;10834;52.268;6.770;2023-06-22T01:44:23;30.65;;;26.55;;
21352;SDS011;10834;52.268;6.770;2023-06-22T01:47:11;29.85;;;25.33;;
21352;SDS011;10834;52.268;6.770;2023-06-22T01:49:59;33.20;;;26.73;;
21352;SDS011;10834;52.268;6.770;2023-06-22T01:52:46;30.92;;;25.52;;
21352;SDS011;10834;52.268;6.770;2023-06-22T01:55:32;31.48;;;25.92;;
21352;SDS011;10834;52.268;6.770;2023-06-22T01:58:18;30.48;;;25.60;;
21352;SDS011;10834;52.268;6.770;2023-06-22T02:01:12;35.75;;;28.23;;
21352;SDS011;10834;52.268;6.770;2023-06-22T02:04:13;33.13;;;27.10;;
21352;SDS011;10834;52.268;6.770;2023-06-22T02:07:05;30.23;;;26.60;;
21352;SDS011;10834;52.268;6.770;2023-06-22T02:09:57;32.95;;;28.48;;
21352;SDS011;10834;52.268;6.770;2023-06-22T02:12:46;31.45;;;26.90;;
21352;SDS011;10834;52.268;6.770;2023-06-22T02:15:33;33.85;;;26.92;;
21352;SDS011;10834;52.268;6.770;2023-06-22T02:18:19;32.63;;;28.98;;
21352;SDS011;10834;52.268;6.770;2023-06-22T02:21:06;36.78;;;28.58;;
21352;SDS011;10834;52.268;6.770;2023-06-22T02:23:52;35.28;;;28.60;;
21352;SDS011;10834;52.268;6.770;2023-06-22T02:26:39;37.88;;;29.48;;
21352;SDS011;10834;52.268;6.770;2023-06-22T02:29:28;35.95;;;29.27;;
21352;SDS011;10834;52.268;6.770;2023-06-22T02:32:14;36.63;;;30.25;;
21352;SDS011;10834;52.268;6.770;2023-06-22T02:35:03;35.95;;;29.85;;
21352;SDS011;10834;52.268;6.770;2023-06-22T02:37:50;39.10;;;30.17;;
21352;SDS011;10834;52.268;6.770;2023-06-22T02:40:37;39.58;;;31.80;;
21352;SDS011;10834;52.268;6.770;2023-06-22T02:43:23;37.53;;;31.08;;
21352;SDS011;10834;52.268;6.770;2023-06-22T02:46:09;35.30;;;30.70;;
21352;SDS011;10834;52.268;6.770;2023-06-22T02:48:55;40.67;;;33.35;;
21352;SDS011;10834;52.268;6.770;2023-06-22T02:51:44;37.22;;;32.33;;
21352;SDS011;10834;52.268;6.770;2023-06-22T02:54:31;39.45;;;31.55;;
21352;SDS011;10834;52.268;6.770;2023-06-22T02:57:18;38.38;;;31.15;;
21352;SDS011;10834;52.268;6.770;2023-06-22T03:00:05;39.05;;;30.95;;
21352;SDS011;10834;52.268;6.770;2023-06-22T03:03:02;42.03;;;32.72;;
21352;SDS011;10834;52.268;6.770;2023-06-22T03:05:48;41.47;;;33.22;;
21352;SDS011;10834;52.268;6.770;2023-06-22T03:08:34;45.92;;;34.13;;
21352;SDS011;10834;52.268;6.770;2023-06-22T03:11:20;46.70;;;34.75;;
21352;SDS011;10834;52.268;6.770;2023-06-22T03:14:06;42.90;;;34.05;;
21352;SDS011;10834;52.268;6.770;2023-06-22T03:16:52;42.95;;;34.42;;
21352;SDS011;10834;52.268;6.770;2023-06-22T03:19:38;46.58;;;35.25;;
21352;SDS011;10834;52.268;6.770;2023-06-22T03:22:24;40.42;;;33.30;;
21352;SDS011;10834;52.268;6.770;2023-06-22T03:25:10;46.47;;;35.50;;
21352;SDS011;10834;52.268;6.770;2023-06-22T03:27:58;46.33;;;36.30;;
21352;SDS011;10834;52.268;6.770;2023-06-22T03:30:45;41.33;;;34.03;;
21352;SDS011;10834;52.268;6.770;2023-06-22T03:33:32;50.22;;;35.75;;
21352;SDS011;10834;52.268;6.770;2023-06-22T03:36:18;43.85;;;36.95;;
21352;SDS011;10834;52.268;6.770;2023-06-22T03:39:04;43.97;;;35.75;;
21352;SDS011;10834;52.268;6.770;2023-06-22T03:41:50;46.40;;;35.40;;
21352;SDS011;10834;52.268;6.770;2023-06-22T03:44:36;45.88;;;36.22;;
21352;SDS011;10834;52.268;6.770;2023-06-22T03:47:22;47.75;;;36.40;;
21352;SDS011;10834;52.268;6.770;2023-06-22T03:50:08;49.10;;;38.33;;
21352;SDS011;10834;52.268;6.770;2023-06-22T03:52:55;45.60;;;36.78;;
21352;SDS011;10834;52.268;6.770;2023-06-22T03:55:47;51.05;;;37.25;;
21352;SDS011;10834;52.268;6.770;2023-06-22T03:58:35;44.20;;;36.42;;
21352;SDS011;10834;52.268;6.770;2023-06-22T04:01:22;49.90;;;37.70;;
21352;SDS011;10834;52.268;6.770;2023-06-22T04:04:08;45.55;;;36.63;;
21352;SDS011;10834;52.268;6.770;2023-06-22T04:06:54;43.00;;;35.90;;
21352;SDS011;10834;52.268;6.770;2023-06-22T04:09:40;48.83;;;38.20;;
21352;SDS011;10834;52.268;6.770;2023-06-22T04:12:26;46.60;;;39.33;;
21352;SDS011;10834;52.268;6.770;2023-06-22T04:15:12;45.47;;;37.03;;
21352;SDS011;10834;52.268;6.770;2023-06-22T04:17:58;49.03;;;37.33;;
21352;SDS011;10834;52.268;6.770;2023-06-22T04:20:44;47.55;;;38.53;;
21352;SDS011;10834;52.268;6.770;2023-06-22T04:23:32;46.00;;;36.47;;
21352;SDS011;10834;52.268;6.770;2023-06-22T04:26:19;52.42;;;39.50;;
21352;SDS011;10834;52.268;6.770;2023-06-22T04:29:06;51.92;;;40.17;;
21352;SDS011;10834;52.268;6.770;2023-06-22T04:31:54;53.15;;;38.70;;
21352;SDS011;10834;52.268;6.770;2023-06-22T04:34:41;45.58;;;38.65;;
21352;SDS011;10834;52.268;6.770;2023-06-22T04:37:28;47.28;;;34.90;;
21352;SDS011;10834;52.268;6.770;2023-06-22T04:40:14;48.30;;;37.88;;
21352;SDS011;10834;52.268;6.770;2023-06-22T04:43:00;46.83;;;38.13;;
21352;SDS011;10834;52.268;6.770;2023-06-22T04:45:48;48.47;;;37.13;;
21352;SDS011;10834;52.268;6.770;2023-06-22T04:48:37;45.05;;;37.45;;
21352;SDS011;10834;52.268;6.770;2023-06-22T04:51:23;50.75;;;37.38;;
21352;SDS011;10834;52.268;6.770;2023-06-22T04:54:16;45.00;;;36.80;;
21352;SDS011;10834;52.268;6.770;2023-06-22T04:57:02;46.90;;;37.00;;
21352;SDS011;10834;52.268;6.770;2023-06-22T04:59:50;47.17;;;36.83;;
21352;SDS011;10834;52.268;6.770;2023-06-22T05:02:37;46.70;;;36.65;;
21352;SDS011;10834;52.268;6.770;2023-06-22T05:05:24;44.65;;;36.55;;
21352;SDS011;10834;52.268;6.770;2023-06-22T05:08:11;43.55;;;34.83;;
21352;SDS011;10834;52.268;6.770;2023-06-22T05:10:58;44.08;;;35.80;;
21352;SDS011;10834;52.268;6.770;2023-06-22T05:13:44;46.40;;;36.15;;
21352;SDS011;10834;52.268;6.770;2023-06-22T05:16:30;43.03;;;33.50;;
21352;SDS011;10834;52.268;6.770;2023-06-22T05:19:17;39.28;;;32.92;;
21352;SDS011;10834;52.268;6.770;2023-06-22T05:22:03;42.47;;;31.67;;
21352;SDS011;10834;52.268;6.770;2023-06-22T05:24:49;39.83;;;32.65;;
21352;SDS011;10834;52.268;6.770;2023-06-22T05:27:35;41.28;;;31.52;;
21352;SDS011;10834;52.268;6.770;2023-06-22T05:30:25;37.13;;;28.92;;
21352;SDS011;10834;52.268;6.770;2023-06-22T05:33:12;38.10;;;29.90;;
21352;SDS011;10834;52.268;6.770;2023-06-22T05:35:58;33.35;;;28.92;;
21352;SDS011;10834;52.268;6.770;2023-06-22T05:38:44;35.17;;;27.75;;
21352;SDS011;10834;52.268;6.770;2023-06-22T05:41:30;35.15;;;28.60;;
21352;SDS011;10834;52.268;6.770;2023-06-22T05:44:16;33.15;;;27.65;;
21352;SDS011;10834;52.268;6.770;2023-06-22T05:47:02;32.00;;;26.15;;
21352;SDS011;10834;52.268;6.770;2023-06-22T05:49:48;30.77;;;25.40;;
21352;SDS011;10834;52.268;6.770;2023-06-22T05:52:34;29.25;;;24.58;;
21352;SDS011;10834;52.268;6.770;2023-06-22T05:55:20;29.48;;;24.17;;
21352;SDS011;10834;52.268;6.770;2023-06-22T05:58:06;29.42;;;23.73;;
21352;SDS011;10834;52.268;6.770;2023-06-22T06:00:52;28.15;;;23.33;;
21352;SDS011;10834;52.268;6.770;2023-06-22T06:03:38;25.42;;;21.40;;
21352;SDS011;10834;52.268;6.770;2023-06-22T06:06:26;26.75;;;20.33;;
21352;SDS011;10834;52.268;6.770;2023-06-22T06:09:14;25.80;;;21.55;;
21352;SDS011;10834;52.268;6.770;2023-06-22T06:12:00;20.85;;;18.45;;
21352;SDS011;10834;52.268;6.770;2023-06-22T06:14:48;22.00;;;18.42;;
21352;SDS011;10834;52.268;6.770;2023-06-22T06:17:44;22.83;;;18.48;;
21352;SDS011;10834;52.268;6.770;2023-06-22T06:20:32;22.85;;;17.58;;
21352;SDS011;10834;52.268;6.770;2023-06-22T06:23:18;18.45;;;16.45;;
21352;SDS011;10834;52.268;6.770;2023-06-22T06:26:04;20.77;;;17.52;;
21352;SDS011;10834;52.268;6.770;2023-06-22T06:28:52;17.92;;;16.17;;
21352;SDS011;10834;52.268;6.770;2023-06-22T06:31:38;19.27;;;15.73;;
21352;SDS011;10834;52.268;6.770;2023-06-22T06:34:24;19.02;;;16.17;;
21352;SDS011;10834;52.268;6.770;2023-06-22T06:37:10;17.55;;;15.68;;
21352;SDS011;10834;52.268;6.770;2023-06-22T06:39:56;15.27;;;13.68;;
21352;SDS011;10834;52.268;6.770;2023-06-22T06:42:44;15.40;;;13.60;;
21352;SDS011;10834;52.268;6.770;2023-06-22T06:45:33;15.90;;;13.45;;
21352;SDS011;10834;52.268;6.770;2023-06-22T06:48:20;17.77;;;13.63;;
21352;SDS011;10834;52.268;6.770;2023-06-22T06:51:06;13.93;;;12.05;;
21352;SDS011;10834;52.268;6.770;2023-06-22T06:53:54;13.23;;;11.82;;
21352;SDS011;10834;52.268;6.770;2023-06-22T06:56:40;12.60;;;10.70;;
21352;SDS011;10834;52.268;6.770;2023-06-22T06:59:30;12.68;;;11.13;;
21352;SDS011;10834;52.268;6.770;2023-06-22T07:02:16;11.60;;;10.30;;
21352;SDS011;10834;52.268;6.770;2023-06-22T07:05:02;12.75;;;10.43;;
21352;SDS011;10834;52.268;6.770;2023-06-22T07:07:49;13.40;;;9.68;;
21352;SDS011;10834;52.268;6.770;2023-06-22T07:10:36;11.10;;;8.65;;
21352;SDS011;10834;52.268;6.770;2023-06-22T07:13:22;15.43;;;10.02;;
21352;SDS011;10834;52.268;6.770;2023-06-22T07:16:08;11.32;;;10.18;;
21352;SDS011;10834;52.268;6.770;2023-06-22T07:18:54;12.25;;;8.68;;
21352;SDS011;10834;52.268;6.770;2023-06-22T07:21:40;10.75;;;9.65;;
21352;SDS011;10834;52.268;6.770;2023-06-22T07:24:26;11.18;;;9.02;;
21352;SDS011;10834;52.268;6.770;2023-06-22T07:27:12;14.07;;;10.60;;
21352;SDS011;10834;52.268;6.770;2023-06-22T07:30:02;10.93;;;9.93;;
21352;SDS011;10834;52.268;6.770;2023-06-22T07:32:48;10.15;;;9.15;;
21352;SDS011;10834;52.268;6.770;2023-06-22T07:35:34;10.48;;;9.25;;
21352;SDS011;10834;52.268;6.770;2023-06-22T07:38:21;10.30;;;9.13;;
21352;SDS011;10834;52.268;6.770;2023-06-22T07:41:07;11.48;;;10.05;;
21352;SDS011;10834;52.268;6.770;2023-06-22T07:43:53;16.13;;;11.40;;
21352;SDS011;10834;52.268;6.770;2023-06-22T07:46:39;11.10;;;10.05;;
21352;SDS011;10834;52.268;6.770;2023-06-22T07:49:27;10.40;;;9.25;;
21352;SDS011;10834;52.268;6.770;2023-06-22T07:52:13;12.18;;;10.93;;
21352;SDS011;10834;52.268;6.770;2023-06-22T07:54:59;13.07;;;10.45;;
21352;SDS011;10834;52.268;6.770;2023-06-22T07:57:46;10.98;;;9.93;;
21352;SDS011;10834;52.268;6.770;2023-06-22T08:00:34;10.63;;;8.93;;
21352;SDS011;10834;52.268;6.770;2023-06-22T08:03:20;10.80;;;8.73;;
21352;SDS011;10834;52.268;6.770;2023-06-22T08:06:06;10.00;;;9.02;;
21352;SDS011;10834;52.268;6.770;2023-06-22T08:08:54;10.30;;;9.30;;
21352;SDS011;10834;52.268;6.770;2023-06-22T08:11:42;9.88;;;8.30;;
21352;SDS011;10834;52.268;6.770;2023-06-22T08:14:29;9.82;;;8.80;;
21352;SDS011;10834;52.268;6.770;2023-06-22T08:17:15;10.80;;;9.15;;
21352;SDS011;10834;52.268;6.770;2023-06-22T08:20:01;9.20;;;8.20;;
21352;SDS011;10834;52.268;6.770;2023-06-22T08:22:55;9.60;;;8.50;;
21352;SDS011;10834;52.268;6.770;2023-06-22T08:25:43;11.07;;;7.93;;
21352;SDS011;10834;52.268;6.770;2023-06-22T08:28:29;8.52;;;7.18;;
21352;SDS011;10834;52.268;6.770;2023-06-22T08:31:15;8.45;;;7.65;;
21352;SDS011;10834;52.268;6.770;2023-06-22T08:34:01;8.20;;;7.40;;
21352;SDS011;10834;52.268;6.770;2023-06-22T08:36:47;9.02;;;8.07;;
21352;SDS011;10834;52.268;6.770;2023-06-22T08:39:37;8.95;;;7.70;;
21352;SDS011;10834;52.268;6.770;2023-06-22T08:42:24;9.52;;;8.52;;
21352;SDS011;10834;52.268;6.770;2023-06-22T08:45:11;9.00;;;8.10;;
21352;SDS011;10834;52.268;6.770;2023-06-22T08:47:57;8.52;;;7.07;;
21352;SDS011;10834;52.268;6.770;2023-06-22T08:50:43;11.05;;;8.23;;
21352;SDS011;10834;52.268;6.770;2023-06-22T08:53:29;9.57;;;7.90;;
21352;SDS011;10834;52.268;6.770;2023-06-22T08:56:15;9.32;;;7.15;;
21352;SDS011;10834;52.268;6.770;2023-06-22T08:59:01;8.52;;;7.72;;
21352;SDS011;10834;52.268;6.770;2023-06-22T09:01:47;8.40;;;7.53;;
21352;SDS011;10834;52.268;6.770;2023-06-22T09:04:34;8.77;;;7.63;;
21352;SDS011;10834;52.268;6.770;2023-06-22T09:07:22;8.00;;;7.20;;
21352;SDS011;10834;52.268;6.770;2023-06-22T09:10:09;9.40;;;6.90;;
21352;SDS011;10834;52.268;6.770;2023-06-22T09:12:56;7.53;;;6.82;;
21352;SDS011;10834;52.268;6.770;2023-06-22T09:15:42;7.97;;;7.25;;
21352;SDS011;10834;52.268;6.770;2023-06-22T09:18:28;7.18;;;6.50;;
21352;SDS011;10834;52.268;6.770;2023-06-22T09:21:14;7.35;;;5.97;;
21352;SDS011;10834;52.268;6.770;2023-06-22T09:24:00;7.43;;;6.53;;
21352;SDS011;10834;52.268;6.770;2023-06-22T09:26:46;6.80;;;6.20;;
21352;SDS011;10834;52.268;6.770;2023-06-22T09:29:32;7.65;;;6.93;;
21352;SDS011;10834;52.268;6.770;2023-06-22T09:32:19;8.27;;;7.57;;
21352;SDS011;10834;52.268;6.770;2023-06-22T09:35:05;8.32;;;7.13;;
21352;SDS011;10834;52.268;6.770;2023-06-22T09:37:52;7.93;;;7.25;;
21352;SDS011;10834;52.268;6.770;2023-06-22T09:40:38;10.35;;;8.63;;
21352;SDS011;10834;52.268;6.770;2023-06-22T09:43:25;8.35;;;7.55;;
21352;SDS011;10834;52.268;6.770;2023-06-22T09:46:12;7.03;;;6.40;;
21352;SDS011;10834;52.268;6.770;2023-06-22T09:48:58;8.00;;;7.20;;
21352;SDS011;10834;52.268;6.770;2023-06-22T09:51:44;12.35;;;7.57;;
21352;SDS011;10834;52.268;6.770;2023-06-22T09:54:30;8.75;;;7.80;;
21352;SDS011;10834;52.268;6.770;2023-06-22T09:57:16;7.60;;;6.85;;
21352;SDS011;10834;52.268;6.770;2023-06-22T10:00:03;11.32;;;8.35;;
21352;SDS011;10834;52.268;6.770;2023-06-22T10:02:51;7.60;;;6.90;;
21352;SDS011;10834;52.268;6.770;2023-06-22T10:05:37;8.65;;;7.72;;
21352;SDS011;10834;52.268;6.770;2023-06-22T10:08:23;9.05;;;8.05;;
21352;SDS011;10834;52.268;6.770;2023-06-22T10:11:09;8.07;;;7.28;;
21352;SDS011;10834;52.268;6.770;2023-06-22T10:13:55;12.25;;;9.10;;
21352;SDS011;10834;52.268;6.770;2023-06-22T10:16:42;9.55;;;8.55;;
21352;SDS011;10834;52.268;6.770;2023-06-22T10:19:28;8.40;;;7.60;;
21352;SDS011;10834;52.268;6.770;2023-06-22T10:22:14;8.25;;;7.05;;
21352;SDS011;10834;52.268;6.770;2023-06-22T10:25:00;8.45;;;7.72;;
21352;SDS011;10834;52.268;6.770;2023-06-22T10:27:46;8.45;;;7.65;;
21352;SDS011;10834;52.268;6.770;2023-06-22T10:30:32;9.57;;;8.15;;
21352;SDS011;10834;52.268;6.770;2023-06-22T10:33:18;9.23;;;8.10;;
21352;SDS011;10834;52.268;6.770;2023-06-22T10:36:05;10.05;;;7.93;;
21352;SDS011;10834;52.268;6.770;2023-06-22T10:38:51;8.38;;;7.30;;
21352;SDS011;10834;52.268;6.770;2023-06-22T10:41:38;7.90;;;6.82;;
21352;SDS011;10834;52.268;6.770;2023-06-22T10:44:24;7.68;;;6.95;;
21352;SDS011;10834;52.268;6.770;2023-06-22T10:47:11;9.15;;;6.95;;
21352;SDS011;10834;52.268;6.770;2023-06-22T10:49:57;8.75;;;7.95;;
21352;SDS011;10834;52.268;6.770;2023-06-22T10:52:43;10.35;;;7.47;;
21352;SDS011;10834;52.268;6.770;2023-06-22T10:55:29;9.43;;;7.07;;
21352;SDS011;10834;52.268;6.770;2023-06-22T10:58:15;9.02;;;8.05;;
21352;SDS011;10834;52.268;6.770;2023-06-22T11:01:01;10.63;;;7.15;;
21352;SDS011;10834;52.268;6.770;2023-06-22T11:03:48;7.97;;;6.82;;
21352;SDS011;10834;52.268;6.770;2023-06-22T11:06:34;6.90;;;6.22;;
21352;SDS011;10834;52.268;6.770;2023-06-22T11:09:20;6.93;;;6.32;;
21352;SDS011;10834;52.268;6.770;2023-06-22T11:12:06;8.43;;;7.72;;
21352;SDS011;10834;52.268;6.770;2023-06-22T11:14:53;9.55;;;8.63;;
21352;SDS011;10834;52.268;6.770;2023-06-22T11:17:39;10.38;;;7.80;;
21352;SDS011;10834;52.268;6.770;2023-06-22T11:20:25;10.55;;;9.27;;
21352;SDS011;10834;52.268;6.770;2023-06-22T11:23:11;9.25;;;7.85;;
21352;SDS011;10834;52.268;6.770;2023-06-22T11:25:57;16.58;;;8.90;;
21352;SDS011;10834;52.268;6.770;2023-06-22T11:28:43;9.10;;;8.25;;
21352;SDS011;10834;52.268;6.770;2023-06-22T11:31:29;9.23;;;8.32;;
21352;SDS011;10834;52.268;6.770;2023-06-22T11:34:16;9.70;;;8.80;;
21352;SDS011;10834;52.268;6.770;2023-06-22T11:37:02;9.50;;;8.60;;
21352;SDS011;10834;52.268;6.770;2023-06-22T11:39:48;8.23;;;7.22;;
21352;SDS011;10834;52.268;6.770;2023-06-22T11:42:35;10.02;;;9.02;;
21352;SDS011;10834;52.268;6.770;2023-06-22T11:45:21;10.52;;;9.02;;
21352;SDS011;10834;52.268;6.770;2023-06-22T11:48:07;10.60;;;9.45;;
21352;SDS011;10834;52.268;6.770;2023-06-22T11:50:53;9.93;;;8.60;;
21352;SDS011;10834;52.268;6.770;2023-06-22T11:53:40;9.88;;;8.88;;
21352;SDS011;10834;52.268;6.770;2023-06-22T11:56:26;9.75;;;8.20;;
21352;SDS011;10834;52.268;6.770;2023-06-22T11:59:13;12.00;;;8.93;;
21352;SDS011;10834;52.268;6.770;2023-06-22T12:01:59;9.90;;;8.75;;
21352;SDS011;10834;52.268;6.770;2023-06-22T12:04:45;11.45;;;8.63;;
21352;SDS011;10834;52.268;6.770;2023-06-22T12:07:31;10.90;;;8.20;;
21352;SDS011;10834;52.268;6.770;2023-06-22T12:10:18;11.15;;;8.90;;
21352;SDS011;10834;52.268;6.770;2023-06-22T12:13:04;11.05;;;9.80;;
21352;SDS011;10834;52.268;6.770;2023-06-22T12:15:50;10.48;;;9.25;;
21352;SDS011;10834;52.268;6.770;2023-06-22T12:18:37;15.13;;;11.10;;
21352;SDS011;10834;52.268;6.770;2023-06-22T12:21:24;10.30;;;9.00;;
21352;SDS011;10834;52.268;6.770;2023-06-22T12:24:10;10.77;;;9.68;;
21352;SDS011;10834;52.268;6.770;2023-06-22T12:26:56;12.60;;;10.13;;
21352;SDS011;10834;52.268;6.770;2023-06-22T12:29:41;9.57;;;8.60;;
21352;SDS011;10834;52.268;6.770;2023-06-22T12:32:28;11.38;;;9.15;;
21352;SDS011;10834;52.268;6.770;2023-06-22T12:35:14;12.27;;;8.57;;
21352;SDS011;10834;52.268;6.770;2023-06-22T12:38:00;10.35;;;9.35;;
21352;SDS011;10834;52.268;6.770;2023-06-22T12:40:46;10.50;;;9.50;;
21352;SDS011;10834;52.268;6.770;2023-06-22T12:43:32;10.65;;;8.90;;
21352;SDS011;10834;52.268;6.770;2023-06-22T12:46:18;15.35;;;10.88;;
21352;SDS011;10834;52.268;6.770;2023-06-22T12:49:04;13.07;;;10.27;;
21352;SDS011;10834;52.268;6.770;2023-06-22T12:51:51;12.98;;;11.55;;
21352;SDS011;10834;52.268;6.770;2023-06-22T12:54:37;11.52;;;10.23;;
21352;SDS011;10834;52.268;6.770;2023-06-22T12:57:23;13.88;;;12.57;;
21352;SDS011;10834;52.268;6.770;2023-06-22T13:00:09;16.10;;;13.93;;
21352;SDS011;10834;52.268;6.770;2023-06-22T13:02:56;15.25;;;13.80;;
21352;SDS011;10834;52.268;6.770;2023-06-22T13:05:42;18.63;;;15.70;;
21352;SDS011;10834;52.268;6.770;2023-06-22T13:08:28;18.00;;;16.20;;
21352;SDS011;10834;52.268;6.770;2023-06-22T13:11:14;18.75;;;16.85;;
21352;SDS011;10834;52.268;6.770;2023-06-22T13:14:00;20.40;;;18.08;;
21352;SDS011;10834;52.268;6.770;2023-06-22T13:16:46;22.55;;;17.58;;
21352;SDS011;10834;52.268;6.770;2023-06-22T13:19:32;20.77;;;18.73;;
21352;SDS011;10834;52.268;6.770;2023-06-22T13:22:34;20.38;;;18.40;;
21352;SDS011;10834;52.268;6.770;2023-06-22T13:25:29;21.85;;;19.55;;
21352;SDS011;10834;52.268;6.770;2023-06-22T13:28:15;22.98;;;20.52;;
21352;SDS011;10834;52.268;6.770;2023-06-22T13:31:01;24.73;;;21.30;;
21352;SDS011;10834;52.268;6.770;2023-06-22T13:33:47;22.85;;;20.67;;
21352;SDS011;10834;52.268;6.770;2023-06-22T13:36:34;27.17;;;21.33;;
21352;SDS011;10834;52.268;6.770;2023-06-22T13:39:20;25.00;;;22.50;;
21352;SDS011;10834;52.268;6.770;2023-06-22T13:42:06;24.52;;;21.83;;
21352;SDS011;10834;52.268;6.770;2023-06-22T13:44:52;24.38;;;21.60;;
21352;SDS011;10834;52.268;6.770;2023-06-22T13:47:38;29.23;;;23.08;;
21352;SDS011;10834;52.268;6.770;2023-06-22T13:50:25;27.02;;;23.88;;
21352;SDS011;10834;52.268;6.770;2023-06-22T13:53:11;25.92;;;23.15;;
21352;SDS011;10834;52.268;6.770;2023-06-22T13:55:57;27.20;;;24.27;;
21352;SDS011;10834;52.268;6.770;2023-06-22T13:58:43;28.85;;;24.27;;
21352;SDS011;10834;52.268;6.770;2023-06-22T14:01:29;27.17;;;24.08;;
21352;SDS011;10834;52.268;6.770;2023-06-22T14:04:15;28.58;;;25.73;;
21352;SDS011;10834;52.268;6.770;2023-06-22T14:07:01;28.15;;;25.17;;
21352;SDS011;10834;52.268;6.770;2023-06-22T14:09:47;29.23;;;26.08;;
21352;SDS011;10834;52.268;6.770;2023-06-22T14:12:33;28.38;;;25.55;;
21352;SDS011;10834;52.268;6.770;2023-06-22T14:15:19;29.92;;;26.73;;
21352;SDS011;10834;52.268;6.770;2023-06-22T14:18:05;27.67;;;24.80;;
21352;SDS011;10834;52.268;6.770;2023-06-22T14:20:51;31.75;;;25.58;;
21352;SDS011;10834;52.268;6.770;2023-06-22T14:23:37;31.35;;;26.40;;
21352;SDS011;10834;52.268;6.770;2023-06-22T14:26:23;32.42;;;26.85;;
21352;SDS011;10834;52.268;6.770;2023-06-22T14:29:09;30.77;;;27.40;;
21352;SDS011;10834;52.268;6.770;2023-06-22T14:31:55;35.00;;;27.17;;
21352;SDS011;10834;52.268;6.770;2023-06-22T14:34:41;31.15;;;26.42;;
21352;SDS011;10834;52.268;6.770;2023-06-22T14:37:28;29.48;;;26.38;;
21352;SDS011;10834;52.268;6.770;2023-06-22T14:40:14;30.58;;;24.83;;
21352;SDS011;10834;52.268;6.770;2023-06-22T14:43:00;31.48;;;27.50;;
21352;SDS011;10834;52.268;6.770;2023-06-22T14:45:46;29.05;;;26.17;;
21352;SDS011;10834;52.268;6.770;2023-06-22T14:48:32;29.17;;;26.08;;
21352;SDS011;10834;52.268;6.770;2023-06-22T14:51:18;29.88;;;26.88;;
21352;SDS011;10834;52.268;6.770;2023-06-22T14:54:04;27.20;;;24.50;;
21352;SDS011;10834;52.268;6.770;2023-06-22T14:56:50;32.72;;;27.48;;
21352;SDS011;10834;52.268;6.770;2023-06-22T14:59:36;31.30;;;27.65;;
21352;SDS011;10834;52.268;6.770;2023-06-22T15:02:23;29.70;;;25.55;;
21352;SDS011;10834;52.268;6.770;2023-06-22T15:05:09;27.65;;;24.27;;
21352;SDS011;10834;52.268;6.770;2023-06-22T15:07:55;30.30;;;27.10;;
21352;SDS011;10834;52.268;6.770;2023-06-22T15:10:41;32.08;;;26.70;;
21352;SDS011;10834;52.268;6.770;2023-06-22T15:13:27;28.15;;;25.08;;
21352;SDS011;10834;52.268;6.770;2023-06-22T15:16:14;29.35;;;26.35;;
21352;SDS011;10834;52.268;6.770;2023-06-22T15:19:01;27.98;;;24.75;;
21352;SDS011;10834;52.268;6.770;2023-06-22T15:21:47;28.02;;;25.08;;
21352;SDS011;10834;52.268;6.770;2023-06-22T15:24:33;29.55;;;26.65;;
21352;SDS011;10834;52.268;6.770;2023-06-22T15:27:19;29.60;;;26.60;;
21352;SDS011;10834;52.268;6.770;2023-06-22T15:30:06;32.15;;;26.90;;
21352;SDS011;10834;52.268;6.770;2023-06-22T15:32:52;31.60;;;27.38;;
21352;SDS011;10834;52.268;6.770;2023-06-22T15:35:38;29.13;;;26.02;;
21352;SDS011;10834;52.268;6.770;2023-06-22T15:38:24;30.30;;;27.08;;
21352;SDS011;10834;52.268;6.770;2023-06-22T15:41:10;32.63;;;26.48;;
21352;SDS011;10834;52.268;6.770;2023-06-22T15:43:56;29.38;;;26.27;;
21352;SDS011;10834;52.268;6.770;2023-06-22T15:46:42;31.75;;;27.58;;
21352;SDS011;10834;52.268;6.770;2023-06-22T15:49:28;31.70;;;26.20;;
21352;SDS011;10834;52.268;6.770;2023-06-22T15:52:15;34.40;;;28.50;;
21352;SDS011;10834;52.268;6.770;2023-06-22T15:55:05;30.98;;;27.45;;
21352;SDS011;10834;52.268;6.770;2023-06-22T15:57:52;29.70;;;26.70;;
21352;SDS011;10834;52.268;6.770;2023-06-22T16:00:38;29.85;;;26.65;;
21352;SDS011;10834;52.268;6.770;2023-06-22T16:03:24;30.05;;;26.95;;
21352;SDS011;10834;52.268;6.770;2023-06-22T16:06:10;29.15;;;25.50;;
21352;SDS011;10834;52.268;6.770;2023-06-22T16:08:57;29.25;;;25.45;;
21352;SDS011;10834;52.268;6.770;2023-06-22T16:11:43;30.65;;;26.67;;
21352;SDS011;10834;52.268;6.770;2023-06-22T16:14:29;30.05;;;26.75;;
21352;SDS011;10834;52.268;6.770;2023-06-22T16:17:15;31.15;;;27.80;;
21352;SDS011;10834;52.268;6.770;2023-06-22T16:20:01;31.25;;;27.10;;
21352;SDS011;10834;52.268;6.770;2023-06-22T16:22:47;32.65;;;26.88;;
21352;SDS011;10834;52.268;6.770;2023-06-22T16:25:33;31.80;;;27.77;;
21352;SDS011;10834;52.268;6.770;2023-06-22T16:28:20;35.25;;;30.08;;
21352;SDS011;10834;52.268;6.770;2023-06-22T16:31:06;33.92;;;28.45;;